Terminal Aerodrome Forecast
Issued by NWS

Home | Current Version | Previous Version | Text Only | Print | Product List | Glossary On
Versions: 1 2 3 4 5 6 7 8 9 10 11 12 13 14 15 16 17
000
FTUS42 KTBW 241120
TAFPIE
TAF
KPIE 241120Z 2412/2512 09004KT P6SM FEW020 SCT250
     FM241400 13006KT P6SM FEW025 SCT250
     FM241700 22007KT P6SM VCTS SCT030CB SCT100 BKN250
     FM250100 VRB03KT P6SM SCT015 BKN040
     FM250400 13003KT P6SM FEW040 SCT250=

USA.gov is the U.S. government's official web portal to all federal, state and local government web resources and services.